createdAt,value
2019-04-07T00:19:07.613Z,23.95
2019-04-07T00:33:00.819Z,23.84
2019-04-07T00:36:55.729Z,22.15
2019-04-07T00:40:59.230Z,19.70
2019-04-07T00:45:02.157Z,18.90
2019-04-07T00:49:06.045Z,23.45
2019-04-07T01:25:45.725Z,15.44
2019-04-07T01:29:42.839Z,19.89
2019-04-07T02:13:20.721Z,14.81
2019-04-07T02:17:40.634Z,15.93
2019-04-07T02:21:50.332Z,15.24
2019-04-07T03:05:21.038Z,14.52
2019-04-07T03:48:35.346Z,17.40
2019-04-07T03:52:47.073Z,16.37
2019-04-07T03:56:56.622Z,14.43
2019-04-07T04:01:22.315Z,16.74
2019-04-07T04:05:52.544Z,13.38
2019-04-07T04:10:01.072Z,14.28
2019-04-07T04:14:25.205Z,15.11
2019-04-07T04:18:26.239Z,14.09
2019-04-07T04:22:30.778Z,17.23
2019-04-07T04:26:34.352Z,16.27
2019-04-07T04:30:45.659Z,15.34
2019-04-07T04:34:46.670Z,15.07
2019-04-07T04:38:56.581Z,12.03
2019-04-07T04:42:59.328Z,15.00
2019-04-07T04:47:04.774Z,16.17
2019-04-07T04:51:08.509Z,19.26
2019-04-07T04:55:15.384Z,20.81
2019-04-07T04:59:18.238Z,13.59
2019-04-07T05:03:21.553Z,15.16
2019-04-07T05:07:31.978Z,14.52
2019-04-07T05:11:34.415Z,14.07
2019-04-07T05:15:41.089Z,14.85
2019-04-07T05:58:49.379Z,19.89
2019-04-07T06:02:48.230Z,16.75
2019-04-07T06:06:58.061Z,14.32
2019-04-07T06:11:05.169Z,12.36
2019-04-07T06:15:07.485Z,13.62
2019-04-07T06:19:14.930Z,11.22
2019-04-07T06:23:29.819Z,12.96
2019-04-07T06:27:34.686Z,11.48
2019-04-07T06:31:44.762Z,10.55
2019-04-07T06:35:53.760Z,13.24
2019-04-07T06:39:57.079Z,9.32
2019-04-07T06:44:24.211Z,9.54
2019-04-07T06:50:32.316Z,11.26
2019-04-07T06:55:06.826Z,8.92
2019-04-07T06:59:37.276Z,8.16
2019-04-07T07:04:09.545Z,8.26
2019-04-07T07:08:26.968Z,6.69
2019-04-07T07:12:52.230Z,8.61
2019-04-07T07:17:23.059Z,6.30
2019-04-07T07:21:42.626Z,6.21
2019-04-07T08:04:46.439Z,5.79
2019-04-07T08:08:49.466Z,5.13
2019-04-07T08:12:53.178Z,3.63
2019-04-07T08:17:00.202Z,5.26
2019-04-07T08:21:04.354Z,6.05
2019-04-07T09:04:20.694Z,4.86
2019-04-07T09:08:20.429Z,3.44
2019-04-07T09:12:33.964Z,3.55
2019-04-07T09:56:20.516Z,4.40
2019-04-07T10:00:45.453Z,4.49
2019-04-07T10:44:02.124Z,4.91
2019-04-07T10:48:28.674Z,3.84
2019-04-07T10:52:43.807Z,3.53
2019-04-07T10:57:13.580Z,3.76
2019-04-07T11:01:27.032Z,11.80
2019-04-07T11:05:50.814Z,2.66
2019-04-07T11:49:43.838Z,4.29
2019-04-07T11:54:24.093Z,2.94
2019-04-07T11:58:45.735Z,3.60
2019-04-07T12:03:07.161Z,3.29
2019-04-07T12:07:40.417Z,2.79
2019-04-07T12:23:53.366Z,3.62
2019-04-07T12:28:04.181Z,2.29
2019-04-07T13:11:49.456Z,3.64
2019-04-07T13:16:20.979Z,3.39
2019-04-07T13:20:34.732Z,2.59
2019-04-07T13:25:18.695Z,2.40
2019-04-07T14:08:44.862Z,2.96
2019-04-07T14:13:13.604Z,4.89
2019-04-07T14:17:21.911Z,2.90
2019-04-07T14:21:35.448Z,2.55
2019-04-07T15:02:09.470Z,3.20
2019-04-07T15:06:05.352Z,3.39
2019-04-07T15:10:31.947Z,3.25
2019-04-07T15:53:44.601Z,2.81
2019-04-07T16:37:00.295Z,6.01
2019-04-07T16:40:56.940Z,3.75
2019-04-07T16:45:01.543Z,4.03
2019-04-07T16:49:07.816Z,3.04
2019-04-07T16:53:14.867Z,4.00
2019-04-07T16:57:18.298Z,2.86
2019-04-07T17:01:28.635Z,2.71
2019-04-07T17:05:32.215Z,3.34
2019-04-07T17:09:38.633Z,3.60
2019-04-07T17:13:47.279Z,3.19
2019-04-07T17:17:55.931Z,4.10
2019-04-07T17:22:01.809Z,4.60
2019-04-07T17:26:09.542Z,4.86
2019-04-07T17:30:18.429Z,3.56
2019-04-07T17:34:21.466Z,3.36
2019-04-07T17:38:41.099Z,2.99
2019-04-07T18:22:20.439Z,3.63
2019-04-07T18:26:29.728Z,4.31
2019-04-07T18:31:06.751Z,3.33
2019-04-07T18:35:39.127Z,3.81
2019-04-07T18:40:18.945Z,11.14
2019-04-07T18:44:52.960Z,5.42
2019-04-07T18:49:21.715Z,4.09
2019-04-07T18:53:35.094Z,4.05
2019-04-07T18:57:52.059Z,8.74
2019-04-07T19:02:18.264Z,4.39
2019-04-07T19:45:39.272Z,5.68
2019-04-07T19:50:10.186Z,5.74
2019-04-07T20:33:25.010Z,6.74
2019-04-07T20:37:45.481Z,6.25
2019-04-07T20:42:00.981Z,8.00
2019-04-07T20:46:41.652Z,8.14
2019-04-07T21:30:08.636Z,11.69
2019-04-07T22:13:14.142Z,8.60
2019-04-07T22:56:15.997Z,7.71
2019-04-07T23:00:25.570Z,7.67
2019-04-07T23:04:32.764Z,8.54
2019-04-07T23:47:39.618Z,6.85
